sensor_id;sensor_type;location;lat;lon;timestamp;temperature;humidity
37050;DHT22;22958;51.232;6.826;2022-10-24T00:00:45;15.20;99.90
37050;DHT22;22958;51.232;6.826;2022-10-24T00:03:12;15.10;99.90
37050;DHT22;22958;51.232;6.826;2022-10-24T00:05:41;15.10;99.90
37050;DHT22;22958;51.232;6.826;2022-10-24T00:08:07;15.10;99.90
37050;DHT22;22958;51.232;6.826;2022-10-24T00:10:32;15.10;99.90
37050;DHT22;22958;51.232;6.826;2022-10-24T00:12:58;15.10;99.90
37050;DHT22;22958;51.232;6.826;2022-10-24T00:15:23;15.10;99.90
37050;DHT22;22958;51.232;6.826;2022-10-24T00:17:49;15.10;99.90
37050;DHT22;22958;51.232;6.826;2022-10-24T00:20:14;15.10;99.90
37050;DHT22;22958;51.232;6.826;2022-10-24T00:22:40;15.10;99.90
37050;DHT22;22958;51.232;6.826;2022-10-24T00:25:06;15.10;99.90
37050;DHT22;22958;51.232;6.826;2022-10-24T00:27:33;15.20;99.90
37050;DHT22;22958;51.232;6.826;2022-10-24T00:29:59;15.20;99.90
37050;DHT22;22958;51.232;6.826;2022-10-24T00:32:25;15.20;99.90
37050;DHT22;22958;51.232;6.826;2022-10-24T00:34:50;15.20;99.90
37050;DHT22;22958;51.232;6.826;2022-10-24T00:37:16;15.20;99.90
37050;DHT22;22958;51.232;6.826;2022-10-24T00:39:42;15.20;99.90
37050;DHT22;22958;51.232;6.826;2022-10-24T00:42:07;15.30;99.90
37050;DHT22;22958;51.232;6.826;2022-10-24T00:44:37;15.20;99.90
37050;DHT22;22958;51.232;6.826;2022-10-24T00:47:07;15.20;99.90
37050;DHT22;22958;51.232;6.826;2022-10-24T00:52:42;15.20;99.90
37050;DHT22;22958;51.232;6.826;2022-10-24T00:55:09;15.30;99.90
37050;DHT22;22958;51.232;6.826;2022-10-24T00:57:44;15.20;99.90
37050;DHT22;22958;51.232;6.826;2022-10-24T01:00:17;15.20;99.90
37050;DHT22;22958;51.232;6.826;2022-10-24T01:02:44;15.20;99.90
37050;DHT22;22958;51.232;6.826;2022-10-24T01:05:10;15.20;99.90
37050;DHT22;22958;51.232;6.826;2022-10-24T01:07:49;15.20;99.90
37050;DHT22;22958;51.232;6.826;2022-10-24T01:10:24;15.20;99.90
37050;DHT22;22958;51.232;6.826;2022-10-24T01:15:42;15.30;99.90
37050;DHT22;22958;51.232;6.826;2022-10-24T01:18:25;15.40;99.90
37050;DHT22;22958;51.232;6.826;2022-10-24T01:21:12;15.40;99.90
37050;DHT22;22958;51.232;6.826;2022-10-24T01:31:57;15.40;99.90
37050;DHT22;22958;51.232;6.826;2022-10-24T01:34:31;15.30;99.90
37050;DHT22;22958;51.232;6.826;2022-10-24T01:37:05;15.30;99.90
37050;DHT22;22958;51.232;6.826;2022-10-24T01:39:46;15.30;99.90
37050;DHT22;22958;51.232;6.826;2022-10-24T01:42:13;15.40;99.90
37050;DHT22;22958;51.232;6.826;2022-10-24T01:44:43;15.40;99.90
37050;DHT22;22958;51.232;6.826;2022-10-24T01:47:23;15.40;99.90
37050;DHT22;22958;51.232;6.826;2022-10-24T01:49:56;15.50;99.90
37050;DHT22;22958;51.232;6.826;2022-10-24T01:52:24;15.50;99.90
37050;DHT22;22958;51.232;6.826;2022-10-24T01:54:52;15.40;99.90
37050;DHT22;22958;51.232;6.826;2022-10-24T01:57:18;15.50;99.90
37050;DHT22;22958;51.232;6.826;2022-10-24T01:59:46;15.50;99.90
37050;DHT22;22958;51.232;6.826;2022-10-24T02:02:24;15.50;99.90
37050;DHT22;22958;51.232;6.826;2022-10-24T02:05:06;15.50;99.90
37050;DHT22;22958;51.232;6.826;2022-10-24T02:07:36;15.50;99.90
37050;DHT22;22958;51.232;6.826;2022-10-24T02:10:09;15.50;99.90
37050;DHT22;22958;51.232;6.826;2022-10-24T02:12:38;15.60;99.90
37050;DHT22;22958;51.232;6.826;2022-10-24T02:15:23;15.60;99.90
37050;DHT22;22958;51.232;6.826;2022-10-24T02:17:50;15.60;99.90
37050;DHT22;22958;51.232;6.826;2022-10-24T02:20:16;15.40;99.90
37050;DHT22;22958;51.232;6.826;2022-10-24T02:22:50;15.40;99.90
37050;DHT22;22958;51.232;6.826;2022-10-24T02:25:31;15.50;99.90
37050;DHT22;22958;51.232;6.826;2022-10-24T02:28:09;15.50;99.90
37050;DHT22;22958;51.232;6.826;2022-10-24T02:30:40;15.40;99.90
37050;DHT22;22958;51.232;6.826;2022-10-24T02:33:08;15.40;99.90
37050;DHT22;22958;51.232;6.826;2022-10-24T02:35:36;15.50;99.90
37050;DHT22;22958;51.232;6.826;2022-10-24T02:38:08;15.50;99.90
37050;DHT22;22958;51.232;6.826;2022-10-24T02:40:36;15.50;99.90
37050;DHT22;22958;51.232;6.826;2022-10-24T02:43:03;15.40;99.90
37050;DHT22;22958;51.232;6.826;2022-10-24T02:45:29;15.40;99.90
37050;DHT22;22958;51.232;6.826;2022-10-24T02:47:59;15.40;99.90
37050;DHT22;22958;51.232;6.826;2022-10-24T02:50:27;15.50;99.90
37050;DHT22;22958;51.232;6.826;2022-10-24T02:52:53;15.50;99.90
37050;DHT22;22958;51.232;6.826;2022-10-24T02:55:18;15.50;99.90
37050;DHT22;22958;51.232;6.826;2022-10-24T02:57:44;15.50;99.90
37050;DHT22;22958;51.232;6.826;2022-10-24T03:00:10;15.60;99.90
37050;DHT22;22958;51.232;6.826;2022-10-24T03:02:35;15.60;99.90
37050;DHT22;22958;51.232;6.826;2022-10-24T03:05:01;15.60;99.90
37050;DHT22;22958;51.232;6.826;2022-10-24T03:07:26;15.60;99.90
37050;DHT22;22958;51.232;6.826;2022-10-24T03:09:52;15.50;99.90
37050;DHT22;22958;51.232;6.826;2022-10-24T03:12:17;15.50;99.90
37050;DHT22;22958;51.232;6.826;2022-10-24T03:14:44;15.50;99.90
37050;DHT22;22958;51.232;6.826;2022-10-24T03:17:10;15.50;99.90
37050;DHT22;22958;51.232;6.826;2022-10-24T03:19:35;15.50;99.90
37050;DHT22;22958;51.232;6.826;2022-10-24T03:22:02;15.60;99.90
37050;DHT22;22958;51.232;6.826;2022-10-24T03:24:28;15.60;99.90
37050;DHT22;22958;51.232;6.826;2022-10-24T03:26:54;15.50;99.90
37050;DHT22;22958;51.232;6.826;2022-10-24T03:29:19;15.50;99.90
37050;DHT22;22958;51.232;6.826;2022-10-24T03:31:45;15.50;99.90
37050;DHT22;22958;51.232;6.826;2022-10-24T03:34:11;15.50;99.90
37050;DHT22;22958;51.232;6.826;2022-10-24T03:36:36;15.50;99.90
37050;DHT22;22958;51.232;6.826;2022-10-24T03:39:02;15.50;99.90
37050;DHT22;22958;51.232;6.826;2022-10-24T03:41:28;15.40;99.90
37050;DHT22;22958;51.232;6.826;2022-10-24T03:43:53;15.50;99.90
37050;DHT22;22958;51.232;6.826;2022-10-24T03:46:19;15.60;99.90
37050;DHT22;22958;51.232;6.826;2022-10-24T03:48:44;15.60;99.90
37050;DHT22;22958;51.232;6.826;2022-10-24T03:51:10;15.60;99.90
37050;DHT22;22958;51.232;6.826;2022-10-24T03:53:35;15.60;99.90
37050;DHT22;22958;51.232;6.826;2022-10-24T03:56:01;15.60;99.90
37050;DHT22;22958;51.232;6.826;2022-10-24T03:58:27;15.60;99.90
37050;DHT22;22958;51.232;6.826;2022-10-24T04:00:52;15.60;99.90
37050;DHT22;22958;51.232;6.826;2022-10-24T04:03:19;15.60;99.90
37050;DHT22;22958;51.232;6.826;2022-10-24T04:05:45;15.60;99.90
37050;DHT22;22958;51.232;6.826;2022-10-24T04:08:10;15.60;99.90
37050;DHT22;22958;51.232;6.826;2022-10-24T04:10:36;15.60;99.90
37050;DHT22;22958;51.232;6.826;2022-10-24T04:13:01;15.60;99.90
37050;DHT22;22958;51.232;6.826;2022-10-24T04:15:27;15.70;99.90
37050;DHT22;22958;51.232;6.826;2022-10-24T04:17:52;15.70;99.90
37050;DHT22;22958;51.232;6.826;2022-10-24T04:20:18;15.70;99.90
37050;DHT22;22958;51.232;6.826;2022-10-24T04:22:45;15.60;99.90
37050;DHT22;22958;51.232;6.826;2022-10-24T04:25:11;15.60;99.90
37050;DHT22;22958;51.232;6.826;2022-10-24T04:27:37;15.60;99.90
37050;DHT22;22958;51.232;6.826;2022-10-24T04:30:07;15.50;99.90
37050;DHT22;22958;51.232;6.826;2022-10-24T04:32:33;15.50;99.90
37050;DHT22;22958;51.232;6.826;2022-10-24T04:34:58;15.40;99.90
37050;DHT22;22958;51.232;6.826;2022-10-24T04:37:25;15.40;99.90
37050;DHT22;22958;51.232;6.826;2022-10-24T04:39:50;15.30;99.90
37050;DHT22;22958;51.232;6.826;2022-10-24T04:42:18;15.30;99.90
37050;DHT22;22958;51.232;6.826;2022-10-24T04:44:43;15.30;99.90
37050;DHT22;22958;51.232;6.826;2022-10-24T04:47:09;15.30;99.90
37050;DHT22;22958;51.232;6.826;2022-10-24T04:49:34;15.20;99.90
37050;DHT22;22958;51.232;6.826;2022-10-24T04:52:00;15.20;99.90
37050;DHT22;22958;51.232;6.826;2022-10-24T04:54:25;15.30;99.90
37050;DHT22;22958;51.232;6.826;2022-10-24T04:56:51;15.30;99.90
37050;DHT22;22958;51.232;6.826;2022-10-24T04:59:16;15.30;99.90
37050;DHT22;22958;51.232;6.826;2022-10-24T05:01:42;15.40;99.90
37050;DHT22;22958;51.232;6.826;2022-10-24T05:04:07;15.40;99.90
37050;DHT22;22958;51.232;6.826;2022-10-24T05:06:33;15.40;99.90
37050;DHT22;22958;51.232;6.826;2022-10-24T05:08:59;15.60;99.90
37050;DHT22;22958;51.232;6.826;2022-10-24T05:11:24;15.50;99.90
37050;DHT22;22958;51.232;6.826;2022-10-24T05:13:50;15.60;99.90
37050;DHT22;22958;51.232;6.826;2022-10-24T05:16:15;15.60;99.90
37050;DHT22;22958;51.232;6.826;2022-10-24T05:18:41;15.60;99.90
37050;DHT22;22958;51.232;6.826;2022-10-24T05:21:06;15.70;99.90
37050;DHT22;22958;51.232;6.826;2022-10-24T05:23:32;15.70;99.90
37050;DHT22;22958;51.232;6.826;2022-10-24T05:25:57;15.60;99.90
37050;DHT22;22958;51.232;6.826;2022-10-24T05:28:23;15.70;99.90
37050;DHT22;22958;51.232;6.826;2022-10-24T05:30:48;15.70;99.90
37050;DHT22;22958;51.232;6.826;2022-10-24T05:33:14;15.70;99.90
37050;DHT22;22958;51.232;6.826;2022-10-24T05:35:39;15.60;99.90
37050;DHT22;22958;51.232;6.826;2022-10-24T05:38:06;15.70;99.90
37050;DHT22;22958;51.232;6.826;2022-10-24T05:40:31;15.70;99.90
37050;DHT22;22958;51.232;6.826;2022-10-24T05:42:57;15.80;99.90
37050;DHT22;22958;51.232;6.826;2022-10-24T05:45:22;15.80;99.90
37050;DHT22;22958;51.232;6.826;2022-10-24T05:47:48;15.70;99.90
37050;DHT22;22958;51.232;6.826;2022-10-24T05:50:14;15.90;99.90
37050;DHT22;22958;51.232;6.826;2022-10-24T05:52:40;15.90;99.90
37050;DHT22;22958;51.232;6.826;2022-10-24T05:55:08;15.80;99.90
37050;DHT22;22958;51.232;6.826;2022-10-24T05:57:35;15.80;99.90
37050;DHT22;22958;51.232;6.826;2022-10-24T06:00:00;15.90;99.90
37050;DHT22;22958;51.232;6.826;2022-10-24T06:02:26;15.90;99.90
37050;DHT22;22958;51.232;6.826;2022-10-24T06:04:52;15.90;99.90
37050;DHT22;22958;51.232;6.826;2022-10-24T06:07:19;15.90;99.90
37050;DHT22;22958;51.232;6.826;2022-10-24T06:09:45;15.90;99.90
37050;DHT22;22958;51.232;6.826;2022-10-24T06:12:11;15.90;99.90
37050;DHT22;22958;51.232;6.826;2022-10-24T06:14:37;15.80;99.90
37050;DHT22;22958;51.232;6.826;2022-10-24T06:17:03;15.80;99.90
37050;DHT22;22958;51.232;6.826;2022-10-24T06:19:37;15.60;99.90
37050;DHT22;22958;51.232;6.826;2022-10-24T06:22:03;15.60;99.90
37050;DHT22;22958;51.232;6.826;2022-10-24T06:24:29;15.60;99.90
37050;DHT22;22958;51.232;6.826;2022-10-24T06:26:55;15.50;99.90
37050;DHT22;22958;51.232;6.826;2022-10-24T06:29:21;15.60;99.90
37050;DHT22;22958;51.232;6.826;2022-10-24T06:31:46;15.50;99.90
37050;DHT22;22958;51.232;6.826;2022-10-24T06:34:12;15.40;99.90
37050;DHT22;22958;51.232;6.826;2022-10-24T06:36:37;15.40;99.90
37050;DHT22;22958;51.232;6.826;2022-10-24T06:39:03;15.40;99.90
37050;DHT22;22958;51.232;6.826;2022-10-24T06:41:29;15.30;99.90
37050;DHT22;22958;51.232;6.826;2022-10-24T06:43:55;15.30;99.90
37050;DHT22;22958;51.232;6.826;2022-10-24T06:46:21;15.20;99.90
37050;DHT22;22958;51.232;6.826;2022-10-24T06:48:48;15.30;99.90
37050;DHT22;22958;51.232;6.826;2022-10-24T06:51:17;15.40;99.90
37050;DHT22;22958;51.232;6.826;2022-10-24T06:53:42;15.50;99.90
37050;DHT22;22958;51.232;6.826;2022-10-24T06:56:08;15.60;99.90
37050;DHT22;22958;51.232;6.826;2022-10-24T06:58:35;15.60;99.90
37050;DHT22;22958;51.232;6.826;2022-10-24T07:01:13;15.70;99.90
37050;DHT22;22958;51.232;6.826;2022-10-24T07:03:40;15.70;99.90
37050;DHT22;22958;51.232;6.826;2022-10-24T07:06:08;15.80;99.90
37050;DHT22;22958;51.232;6.826;2022-10-24T07:08:34;15.90;99.90
37050;DHT22;22958;51.232;6.826;2022-10-24T07:11:00;16.00;99.90
37050;DHT22;22958;51.232;6.826;2022-10-24T07:13:25;16.00;99.90
37050;DHT22;22958;51.232;6.826;2022-10-24T07:15:51;16.00;99.90
37050;DHT22;22958;51.232;6.826;2022-10-24T07:18:19;16.00;99.90
37050;DHT22;22958;51.232;6.826;2022-10-24T07:20:45;16.10;99.90
37050;DHT22;22958;51.232;6.826;2022-10-24T07:23:11;16.20;99.90
37050;DHT22;22958;51.232;6.826;2022-10-24T07:25:37;16.30;99.90
37050;DHT22;22958;51.232;6.826;2022-10-24T07:28:03;16.20;99.90
37050;DHT22;22958;51.232;6.826;2022-10-24T07:30:29;16.30;99.90
37050;DHT22;22958;51.232;6.826;2022-10-24T07:32:55;16.40;99.90
37050;DHT22;22958;51.232;6.826;2022-10-24T07:35:20;16.40;99.90
37050;DHT22;22958;51.232;6.826;2022-10-24T07:37:48;16.50;99.90
37050;DHT22;22958;51.232;6.826;2022-10-24T07:40:14;16.70;99.90
37050;DHT22;22958;51.232;6.826;2022-10-24T07:42:39;16.80;99.90
37050;DHT22;22958;51.232;6.826;2022-10-24T07:45:05;16.90;99.90
37050;DHT22;22958;51.232;6.826;2022-10-24T07:47:32;16.80;99.90
37050;DHT22;22958;51.232;6.826;2022-10-24T07:49:57;16.90;99.90
37050;DHT22;22958;51.232;6.826;2022-10-24T07:52:23;17.00;99.90
37050;DHT22;22958;51.232;6.826;2022-10-24T07:54:51;17.00;99.90
37050;DHT22;22958;51.232;6.826;2022-10-24T07:57:17;17.00;99.90
37050;DHT22;22958;51.232;6.826;2022-10-24T07:59:42;17.10;99.90
37050;DHT22;22958;51.232;6.826;2022-10-24T08:02:11;17.10;99.90
37050;DHT22;22958;51.232;6.826;2022-10-24T08:04:39;17.20;99.90
37050;DHT22;22958;51.232;6.826;2022-10-24T08:07:05;17.20;99.90
37050;DHT22;22958;51.232;6.826;2022-10-24T08:09:38;17.20;99.90
37050;DHT22;22958;51.232;6.826;2022-10-24T08:12:03;17.20;99.90
37050;DHT22;22958;51.232;6.826;2022-10-24T08:14:29;17.30;99.90
37050;DHT22;22958;51.232;6.826;2022-10-24T08:16:54;17.40;99.90
37050;DHT22;22958;51.232;6.826;2022-10-24T08:19:20;17.50;99.90
37050;DHT22;22958;51.232;6.826;2022-10-24T08:21:45;17.50;99.90
37050;DHT22;22958;51.232;6.826;2022-10-24T08:24:11;17.50;99.90
37050;DHT22;22958;51.232;6.826;2022-10-24T08:26:36;17.50;99.90
37050;DHT22;22958;51.232;6.826;2022-10-24T08:29:05;17.50;99.90
37050;DHT22;22958;51.232;6.826;2022-10-24T08:31:35;17.40;99.90
37050;DHT22;22958;51.232;6.826;2022-10-24T08:34:00;17.50;99.90
37050;DHT22;22958;51.232;6.826;2022-10-24T08:36:30;17.50;99.90
37050;DHT22;22958;51.232;6.826;2022-10-24T08:38:57;17.50;99.90
37050;DHT22;22958;51.232;6.826;2022-10-24T08:41:35;17.60;99.90
37050;DHT22;22958;51.232;6.826;2022-10-24T08:44:05;17.50;99.90
37050;DHT22;22958;51.232;6.826;2022-10-24T08:49:21;17.60;99.90
37050;DHT22;22958;51.232;6.826;2022-10-24T08:52:02;17.60;99.90
37050;DHT22;22958;51.232;6.826;2022-10-24T08:54:39;17.70;99.90
37050;DHT22;22958;51.232;6.826;2022-10-24T08:57:08;17.70;99.90
37050;DHT22;22958;51.232;6.826;2022-10-24T08:59:38;17.70;99.90
37050;DHT22;22958;51.232;6.826;2022-10-24T09:04:41;17.70;99.90
37050;DHT22;22958;51.232;6.826;2022-10-24T09:07:17;17.70;99.90
37050;DHT22;22958;51.232;6.826;2022-10-24T09:09:47;17.80;99.90
37050;DHT22;22958;51.232;6.826;2022-10-24T09:12:16;17.90;99.90
37050;DHT22;22958;51.232;6.826;2022-10-24T09:14:43;17.90;99.90
37050;DHT22;22958;51.232;6.826;2022-10-24T09:17:24;18.00;99.90
37050;DHT22;22958;51.232;6.826;2022-10-24T09:19:53;18.10;99.90
37050;DHT22;22958;51.232;6.826;2022-10-24T09:22:20;18.10;99.90
37050;DHT22;22958;51.232;6.826;2022-10-24T09:24:49;18.10;99.90
37050;DHT22;22958;51.232;6.826;2022-10-24T09:27:20;18.10;99.90
37050;DHT22;22958;51.232;6.826;2022-10-24T09:29:47;18.00;99.90
37050;DHT22;22958;51.232;6.826;2022-10-24T09:32:21;18.00;99.90
37050;DHT22;22958;51.232;6.826;2022-10-24T09:34:48;18.00;99.90
37050;DHT22;22958;51.232;6.826;2022-10-24T09:37:39;17.90;99.90
37050;DHT22;22958;51.232;6.826;2022-10-24T09:40:12;17.90;99.90
37050;DHT22;22958;51.232;6.826;2022-10-24T09:42:38;17.90;99.90
37050;DHT22;22958;51.232;6.826;2022-10-24T09:45:50;17.90;99.90
37050;DHT22;22958;51.232;6.826;2022-10-24T09:47:59;18.00;99.90
37050;DHT22;22958;51.232;6.826;2022-10-24T09:50:26;18.00;99.90
37050;DHT22;22958;51.232;6.826;2022-10-24T09:52:56;18.00;99.90
37050;DHT22;22958;51.232;6.826;2022-10-24T09:55:24;18.10;99.90
37050;DHT22;22958;51.232;6.826;2022-10-24T09:57:58;18.20;99.90
37050;DHT22;22958;51.232;6.826;2022-10-24T10:00:32;18.30;99.90
37050;DHT22;22958;51.232;6.826;2022-10-24T10:03:10;18.30;99.90
37050;DHT22;22958;51.232;6.826;2022-10-24T10:05:55;18.30;99.90
37050;DHT22;22958;51.232;6.826;2022-10-24T10:08:23;18.30;99.90
37050;DHT22;22958;51.232;6.826;2022-10-24T10:11:10;18.30;99.90
37050;DHT22;22958;51.232;6.826;2022-10-24T10:13:44;18.30;99.90
37050;DHT22;22958;51.232;6.826;2022-10-24T10:16:25;18.30;99.90
37050;DHT22;22958;51.232;6.826;2022-10-24T10:24:40;18.30;99.90
37050;DHT22;22958;51.232;6.826;2022-10-24T10:27:31;18.40;99.90
37050;DHT22;22958;51.232;6.826;2022-10-24T10:35:14;18.40;99.90
37050;DHT22;22958;51.232;6.826;2022-10-24T10:37:57;18.40;99.90
37050;DHT22;22958;51.232;6.826;2022-10-24T10:40:37;18.40;99.90
37050;DHT22;22958;51.232;6.826;2022-10-24T10:43:28;18.30;99.90
37050;DHT22;22958;51.232;6.826;2022-10-24T10:51:44;18.20;99.90
37050;DHT22;22958;51.232;6.826;2022-10-24T10:54:35;18.20;99.90
37050;DHT22;22958;51.232;6.826;2022-10-24T10:57:12;18.20;99.90
37050;DHT22;22958;51.232;6.826;2022-10-24T11:00:08;18.30;99.90
37050;DHT22;22958;51.232;6.826;2022-10-24T11:11:19;18.20;99.90
37050;DHT22;22958;51.232;6.826;2022-10-24T11:13:53;18.20;99.90
37050;DHT22;22958;51.232;6.826;2022-10-24T11:16:25;18.20;99.90
37050;DHT22;22958;51.232;6.826;2022-10-24T11:18:54;18.20;99.90
37050;DHT22;22958;51.232;6.826;2022-10-24T11:21:24;18.20;99.90
37050;DHT22;22958;51.232;6.826;2022-10-24T11:24:00;18.30;99.90
37050;DHT22;22958;51.232;6.826;2022-10-24T11:26:33;18.30;99.90
37050;DHT22;22958;51.232;6.826;2022-10-24T11:29:11;18.30;99.90
37050;DHT22;22958;51.232;6.826;2022-10-24T11:34:32;18.40;99.90
37050;DHT22;22958;51.232;6.826;2022-10-24T11:39:38;18.40;99.90
37050;DHT22;22958;51.232;6.826;2022-10-24T11:42:33;18.50;99.90
37050;DHT22;22958;51.232;6.826;2022-10-24T11:45:15;18.50;99.90
37050;DHT22;22958;51.232;6.826;2022-10-24T11:48:02;18.40;99.90
37050;DHT22;22958;51.232;6.826;2022-10-24T11:50:50;18.30;99.90
37050;DHT22;22958;51.232;6.826;2022-10-24T11:53:50;18.30;99.90
37050;DHT22;22958;51.232;6.826;2022-10-24T11:56:38;18.30;99.90
37050;DHT22;22958;51.232;6.826;2022-10-24T11:59:12;18.30;99.90
37050;DHT22;22958;51.232;6.826;2022-10-24T12:04:37;18.40;99.90
37050;DHT22;22958;51.232;6.826;2022-10-24T12:07:17;18.40;99.90
37050;DHT22;22958;51.232;6.826;2022-10-24T12:18:03;18.40;99.90
37050;DHT22;22958;51.232;6.826;2022-10-24T12:20:30;18.50;99.90
37050;DHT22;22958;51.232;6.826;2022-10-24T12:22:57;18.60;99.90
37050;DHT22;22958;51.232;6.826;2022-10-24T12:25:33;18.70;99.90
37050;DHT22;22958;51.232;6.826;2022-10-24T12:33:41;19.70;99.90
37050;DHT22;22958;51.232;6.826;2022-10-24T12:36:07;19.50;99.90
37050;DHT22;22958;51.232;6.826;2022-10-24T12:44:24;19.20;99.90
37050;DHT22;22958;51.232;6.826;2022-10-24T12:47:26;19.00;99.90
37050;DHT22;22958;51.232;6.826;2022-10-24T12:49:52;19.00;99.90
37050;DHT22;22958;51.232;6.826;2022-10-24T12:53:00;19.90;99.90
37050;DHT22;22958;51.232;6.826;2022-10-24T12:58:03;19.80;99.90
37050;DHT22;22958;51.232;6.826;2022-10-24T13:00:30;19.50;99.90
37050;DHT22;22958;51.232;6.826;2022-10-24T13:03:04;19.30;99.90
37050;DHT22;22958;51.232;6.826;2022-10-24T13:08:20;19.00;99.90
37050;DHT22;22958;51.232;6.826;2022-10-24T13:13:42;19.50;99.90
37050;DHT22;22958;51.232;6.826;2022-10-24T13:19:14;19.60;99.90
37050;DHT22;22958;51.232;6.826;2022-10-24T13:21:52;21.10;99.90
37050;DHT22;22958;51.232;6.826;2022-10-24T13:34:44;19.80;99.90
37050;DHT22;22958;51.232;6.826;2022-10-24T13:42:36;21.90;99.90
37050;DHT22;22958;51.232;6.826;2022-10-24T13:47:56;21.50;99.90
37050;DHT22;22958;51.232;6.826;2022-10-24T13:50:28;20.80;99.90
37050;DHT22;22958;51.232;6.826;2022-10-24T13:52:57;20.10;99.90
37050;DHT22;22958;51.232;6.826;2022-10-24T13:55:42;19.70;99.90
37050;DHT22;22958;51.232;6.826;2022-10-24T13:58:18;19.40;99.90
37050;DHT22;22958;51.232;6.826;2022-10-24T14:00:50;19.50;99.90
37050;DHT22;22958;51.232;6.826;2022-10-24T14:03:19;20.30;99.90
37050;DHT22;22958;51.232;6.826;2022-10-24T14:08:31;22.50;99.90
37050;DHT22;22958;51.232;6.826;2022-10-24T14:11:00;21.30;99.90
37050;DHT22;22958;51.232;6.826;2022-10-24T14:13:28;20.30;99.90
37050;DHT22;22958;51.232;6.826;2022-10-24T14:15:58;19.80;99.90
37050;DHT22;22958;51.232;6.826;2022-10-24T14:18:24;19.50;99.90
37050;DHT22;22958;51.232;6.826;2022-10-24T14:20:58;19.50;99.90
37050;DHT22;22958;51.232;6.826;2022-10-24T14:23:35;19.30;99.90
37050;DHT22;22958;51.232;6.826;2022-10-24T14:26:06;19.20;99.90
37050;DHT22;22958;51.232;6.826;2022-10-24T14:28:38;18.90;99.90
37050;DHT22;22958;51.232;6.826;2022-10-24T14:31:21;18.90;99.90
37050;DHT22;22958;51.232;6.826;2022-10-24T14:33:49;18.90;99.90
37050;DHT22;22958;51.232;6.826;2022-10-24T14:36:17;19.50;99.90
37050;DHT22;22958;51.232;6.826;2022-10-24T14:38:46;20.40;99.90
37050;DHT22;22958;51.232;6.826;2022-10-24T14:41:12;21.00;99.90
37050;DHT22;22958;51.232;6.826;2022-10-24T14:43:40;21.90;99.90
37050;DHT22;22958;51.232;6.826;2022-10-24T14:48:40;20.70;99.90
37050;DHT22;22958;51.232;6.826;2022-10-24T14:51:10;20.30;99.90
37050;DHT22;22958;51.232;6.826;2022-10-24T14:53:41;20.20;99.90
37050;DHT22;22958;51.232;6.826;2022-10-24T14:56:30;20.10;99.90
37050;DHT22;22958;51.232;6.826;2022-10-24T14:58:58;20.90;99.90
37050;DHT22;22958;51.232;6.826;2022-10-24T15:01:24;20.90;99.90
37050;DHT22;22958;51.232;6.826;2022-10-24T15:03:55;20.10;99.90
37050;DHT22;22958;51.232;6.826;2022-10-24T15:06:36;19.50;99.90
37050;DHT22;22958;51.232;6.826;2022-10-24T15:11:40;19.10;99.90
37050;DHT22;22958;51.232;6.826;2022-10-24T15:14:29;19.00;99.90
37050;DHT22;22958;51.232;6.826;2022-10-24T15:16:51;18.90;99.90
37050;DHT22;22958;51.232;6.826;2022-10-24T15:19:16;18.80;99.90
37050;DHT22;22958;51.232;6.826;2022-10-24T15:21:44;18.70;99.90
37050;DHT22;22958;51.232;6.826;2022-10-24T15:24:21;18.70;99.90
37050;DHT22;22958;51.232;6.826;2022-10-24T15:26:47;18.70;99.90
37050;DHT22;22958;51.232;6.826;2022-10-24T15:31:40;18.70;99.90
37050;DHT22;22958;51.232;6.826;2022-10-24T15:34:07;18.60;99.90
37050;DHT22;22958;51.232;6.826;2022-10-24T15:36:35;18.60;99.90
37050;DHT22;22958;51.232;6.826;2022-10-24T15:41:35;18.60;99.90
37050;DHT22;22958;51.232;6.826;2022-10-24T15:44:05;18.60;99.90
37050;DHT22;22958;51.232;6.826;2022-10-24T15:46:37;18.60;99.90
37050;DHT22;22958;51.232;6.826;2022-10-24T15:49:03;18.50;99.90
37050;DHT22;22958;51.232;6.826;2022-10-24T15:51:29;18.50;99.90
37050;DHT22;22958;51.232;6.826;2022-10-24T15:53:55;18.50;99.90
37050;DHT22;22958;51.232;6.826;2022-10-24T15:56:20;18.50;99.90
37050;DHT22;22958;51.232;6.826;2022-10-24T15:58:48;18.30;99.90
37050;DHT22;22958;51.232;6.826;2022-10-24T16:01:33;18.20;99.90
37050;DHT22;22958;51.232;6.826;2022-10-24T16:03:59;17.90;99.90
37050;DHT22;22958;51.232;6.826;2022-10-24T16:06:26;17.30;99.90
37050;DHT22;22958;51.232;6.826;2022-10-24T16:08:52;16.80;99.90
37050;DHT22;22958;51.232;6.826;2022-10-24T16:11:18;16.50;99.90
37050;DHT22;22958;51.232;6.826;2022-10-24T16:13:44;16.40;99.90
37050;DHT22;22958;51.232;6.826;2022-10-24T16:16:09;16.30;99.90
37050;DHT22;22958;51.232;6.826;2022-10-24T16:18:35;16.30;99.90
37050;DHT22;22958;51.232;6.826;2022-10-24T16:21:01;16.20;99.90
37050;DHT22;22958;51.232;6.826;2022-10-24T16:23:26;16.30;99.90
37050;DHT22;22958;51.232;6.826;2022-10-24T16:25:52;16.30;99.90
37050;DHT22;22958;51.232;6.826;2022-10-24T16:28:18;16.40;99.90
37050;DHT22;22958;51.232;6.826;2022-10-24T16:30:45;16.50;99.90
37050;DHT22;22958;51.232;6.826;2022-10-24T16:33:11;16.40;99.90
37050;DHT22;22958;51.232;6.826;2022-10-24T16:35:38;16.40;99.90
37050;DHT22;22958;51.232;6.826;2022-10-24T16:38:06;16.50;99.90
37050;DHT22;22958;51.232;6.826;2022-10-24T16:40:41;16.50;99.90
37050;DHT22;22958;51.232;6.826;2022-10-24T16:43:09;16.50;99.90
37050;DHT22;22958;51.232;6.826;2022-10-24T16:45:38;16.40;99.90
37050;DHT22;22958;51.232;6.826;2022-10-24T16:48:04;16.50;99.90
37050;DHT22;22958;51.232;6.826;2022-10-24T16:50:30;16.40;99.90
37050;DHT22;22958;51.232;6.826;2022-10-24T16:52:59;16.40;99.90
37050;DHT22;22958;51.232;6.826;2022-10-24T16:55:26;16.40;99.90
37050;DHT22;22958;51.232;6.826;2022-10-24T16:57:52;16.40;99.90
37050;DHT22;22958;51.232;6.826;2022-10-24T17:00:19;16.30;99.90
37050;DHT22;22958;51.232;6.826;2022-10-24T17:02:46;16.30;99.90
37050;DHT22;22958;51.232;6.826;2022-10-24T17:05:13;16.30;99.90
37050;DHT22;22958;51.232;6.826;2022-10-24T17:07:39;16.30;99.90
37050;DHT22;22958;51.232;6.826;2022-10-24T17:10:05;16.40;99.90
37050;DHT22;22958;51.232;6.826;2022-10-24T17:12:31;16.40;99.90
37050;DHT22;22958;51.232;6.826;2022-10-24T17:14:57;16.50;99.90
37050;DHT22;22958;51.232;6.826;2022-10-24T17:17:22;16.50;99.90
37050;DHT22;22958;51.232;6.826;2022-10-24T17:19:48;16.60;99.90
37050;DHT22;22958;51.232;6.826;2022-10-24T17:22:15;16.60;99.90
37050;DHT22;22958;51.232;6.826;2022-10-24T17:24:41;16.60;99.90
37050;DHT22;22958;51.232;6.826;2022-10-24T17:27:14;16.60;99.90
37050;DHT22;22958;51.232;6.826;2022-10-24T17:29:41;16.40;99.90
37050;DHT22;22958;51.232;6.826;2022-10-24T17:32:07;16.30;99.90
37050;DHT22;22958;51.232;6.826;2022-10-24T17:34:35;16.30;99.90
37050;DHT22;22958;51.232;6.826;2022-10-24T17:37:47;16.10;99.90
37050;DHT22;22958;51.232;6.826;2022-10-24T17:40:24;15.90;99.90